createdAt,value
2022-11-05T10:07:19.587Z,14.35
2022-11-05T10:09:45.926Z,13.38
2022-11-05T10:12:12.407Z,12.77
2022-11-05T10:14:38.746Z,12.50
2022-11-05T10:17:05.263Z,12.33
2022-11-05T10:19:34.059Z,12.14
2022-11-05T10:22:06.482Z,12.05
2022-11-05T10:24:33.394Z,12.00
2022-11-05T10:26:59.728Z,11.97
2022-11-05T10:29:26.153Z,11.92
2022-11-05T10:31:52.507Z,11.91
2022-11-05T10:34:18.896Z,11.88
2022-11-05T10:36:45.277Z,11.91
2022-11-05T10:39:11.734Z,11.92
2022-11-05T10:41:38.235Z,11.90
2022-11-05T10:44:04.664Z,11.88
2022-11-05T10:46:31.074Z,11.91
2022-11-05T10:48:57.460Z,11.96
2022-11-05T10:51:24.044Z,11.94
2022-11-05T10:53:57.249Z,11.99
2022-11-05T10:56:27.831Z,12.01
2022-11-05T10:58:54.203Z,11.99
2022-11-05T11:01:20.991Z,12.02
2022-11-05T11:03:47.509Z,12.07
2022-11-05T11:06:13.905Z,12.12
2022-11-05T11:08:40.289Z,12.19
2022-11-05T11:11:06.786Z,12.24
2022-11-05T11:13:33.138Z,12.27
2022-11-05T11:15:59.512Z,12.30
2022-11-05T11:18:25.974Z,12.39
2022-11-05T11:20:52.357Z,12.45
2022-11-05T11:23:18.782Z,12.52
2022-11-05T11:25:45.131Z,12.57
2022-11-05T11:28:12.866Z,12.64
2022-11-05T11:30:39.244Z,12.63
2022-11-05T11:33:05.598Z,12.60
2022-11-05T11:35:32.034Z,12.51
2022-11-05T11:38:00.191Z,12.52
2022-11-05T11:40:26.613Z,12.47
2022-11-05T11:42:53.007Z,12.51
2022-11-05T11:45:19.345Z,12.36
2022-11-05T11:47:45.966Z,12.34
2022-11-05T11:50:12.425Z,12.44
2022-11-05T11:52:38.849Z,12.40
2022-11-05T11:55:05.214Z,12.03
2022-11-05T11:57:31.612Z,11.69
2022-11-05T12:00:13.446Z,11.53
2022-11-05T12:02:39.955Z,11.29
2022-11-05T12:05:06.481Z,11.31
2022-11-05T12:07:33.058Z,11.46
2022-11-05T12:09:59.450Z,11.64
2022-11-05T12:12:25.812Z,11.74
2022-11-05T12:14:52.283Z,11.87
2022-11-05T12:17:18.786Z,12.01
2022-11-05T12:19:45.179Z,12.16
2022-11-05T12:22:11.651Z,12.26
2022-11-05T12:24:38.044Z,12.24
2022-11-05T12:27:04.478Z,12.29
2022-11-05T12:29:35.578Z,12.37
2022-11-05T12:32:02.378Z,12.42
2022-11-05T12:34:28.765Z,12.48
2022-11-05T12:36:55.166Z,12.53
2022-11-05T12:39:21.573Z,12.56
2022-11-05T12:41:48.007Z,12.52
2022-11-05T12:44:15.483Z,12.33
2022-11-05T12:46:42.163Z,12.39
2022-11-05T12:49:08.538Z,12.40
2022-11-05T12:51:34.926Z,12.47
2022-11-05T12:54:01.332Z,12.52
2022-11-05T12:56:27.963Z,12.54
2022-11-05T12:58:54.460Z,12.51
2022-11-05T13:01:20.995Z,12.20
2022-11-05T13:03:47.539Z,12.32
2022-11-05T13:06:13.938Z,12.31
2022-11-05T13:08:40.376Z,12.29
2022-11-05T13:11:06.976Z,12.30
2022-11-05T13:13:33.390Z,12.27
2022-11-05T13:15:59.748Z,12.26
2022-11-05T13:18:26.640Z,12.25
2022-11-05T13:20:53.101Z,12.25
2022-11-05T13:23:19.518Z,12.26
2022-11-05T13:25:45.878Z,12.12
2022-11-05T13:28:12.269Z,12.21
2022-11-05T13:30:38.692Z,12.13
2022-11-05T13:33:05.064Z,12.13
2022-11-05T13:35:31.447Z,12.13
2022-11-05T13:37:57.796Z,12.24
2022-11-05T13:40:24.192Z,12.37
2022-11-05T13:42:50.558Z,12.45
2022-11-05T13:45:16.975Z,12.27
2022-11-05T13:47:43.445Z,12.31
2022-11-05T13:50:09.847Z,12.44
2022-11-05T13:52:36.294Z,12.45
2022-11-05T13:55:02.724Z,12.39
2022-11-05T13:57:31.529Z,12.47
2022-11-05T13:59:58.104Z,12.41
2022-11-05T14:02:24.704Z,12.41
2022-11-05T14:04:51.220Z,12.36
2022-11-05T14:07:17.605Z,12.34
2022-11-05T14:09:44.081Z,12.46
2022-11-05T14:12:10.523Z,12.56
2022-11-05T14:14:36.879Z,12.61
2022-11-05T14:17:03.468Z,12.49
2022-11-05T14:19:29.878Z,12.62
2022-11-05T14:21:56.319Z,12.60
2022-11-05T14:24:22.734Z,12.71
2022-11-05T14:26:49.111Z,12.77
2022-11-05T14:29:15.482Z,12.68
2022-11-05T14:32:07.391Z,12.74
2022-11-05T14:34:28.211Z,12.71
2022-11-05T14:36:54.697Z,12.80
2022-11-05T14:39:21.127Z,12.77
2022-11-05T14:41:47.520Z,12.73
2022-11-05T14:44:21.443Z,12.82
2022-11-05T14:46:50.227Z,12.89
2022-11-05T14:49:16.607Z,12.91
2022-11-05T14:51:43.026Z,12.93
2022-11-05T14:54:09.447Z,12.97
2022-11-05T14:56:43.432Z,13.03
2022-11-05T14:59:09.805Z,13.13
2022-11-05T15:01:36.296Z,13.15
2022-11-05T15:04:02.868Z,13.14
2022-11-05T15:06:29.383Z,13.05
2022-11-05T15:08:55.762Z,12.95
2022-11-05T15:11:22.150Z,12.77
2022-11-05T15:13:49.873Z,12.72
2022-11-05T15:16:16.247Z,12.73
2022-11-05T15:18:42.631Z,12.55
2022-11-05T15:21:09.009Z,12.53
2022-11-05T15:23:35.642Z,12.60
2022-11-05T15:26:02.040Z,12.50
2022-11-05T15:28:28.420Z,12.36
2022-11-05T15:30:54.830Z,12.42
2022-11-05T15:33:21.168Z,12.34
2022-11-05T15:35:47.564Z,12.26
2022-11-05T15:38:16.656Z,12.39
2022-11-05T15:40:43.028Z,12.36
2022-11-05T15:43:09.839Z,12.52
2022-11-05T15:45:36.525Z,12.60
2022-11-05T15:48:02.962Z,12.67
2022-11-05T15:50:32.437Z,12.70
2022-11-05T15:53:20.754Z,12.72
2022-11-05T15:55:45.216Z,12.74
2022-11-05T15:58:11.604Z,12.75
2022-11-05T16:00:38.014Z,12.73
2022-11-05T16:03:04.390Z,12.67
2022-11-05T16:05:30.879Z,12.62
2022-11-05T16:07:57.267Z,12.62
2022-11-05T16:10:23.706Z,12.60
2022-11-05T16:12:50.190Z,12.58
2022-11-05T16:15:16.747Z,12.63
2022-11-05T16:17:43.096Z,12.59
2022-11-05T16:20:09.488Z,12.54
2022-11-05T16:22:35.888Z,12.51
2022-11-05T16:25:02.409Z,12.55
2022-11-05T16:27:28.951Z,12.49
2022-11-05T16:29:55.507Z,12.49
2022-11-05T16:32:26.841Z,12.46
2022-11-05T16:34:56.479Z,12.40
2022-11-05T16:37:23.025Z,12.41
2022-11-05T16:39:49.461Z,12.32
2022-11-05T16:42:15.879Z,12.26
2022-11-05T16:44:42.427Z,12.24
2022-11-05T16:47:11.963Z,12.24
2022-11-05T16:49:41.337Z,12.25
2022-11-05T16:52:07.824Z,12.24
2022-11-05T16:54:34.313Z,12.20
2022-11-05T16:57:02.893Z,12.20
2022-11-05T16:59:29.571Z,12.19
2022-11-05T17:01:56.295Z,12.10
2022-11-05T17:04:23.051Z,12.03
2022-11-05T17:06:52.303Z,11.97
2022-11-05T17:09:19.574Z,11.89
2022-11-05T17:11:46.513Z,11.83
2022-11-05T17:14:13.007Z,11.75
2022-11-05T17:16:43.731Z,11.74
2022-11-05T17:19:10.313Z,11.67
2022-11-05T17:21:36.798Z,11.53
2022-11-05T17:24:03.419Z,11.44
2022-11-05T17:26:29.947Z,11.34
2022-11-05T17:28:56.565Z,11.27
2022-11-05T17:31:23.105Z,11.24
2022-11-05T17:33:49.642Z,11.15
2022-11-05T17:36:17.510Z,11.13
2022-11-05T17:38:43.960Z,11.15
2022-11-05T17:41:10.521Z,11.06
2022-11-05T17:43:37.227Z,11.07
2022-11-05T17:46:04.763Z,11.07
2022-11-05T17:48:31.394Z,11.07
2022-11-05T17:51:00.767Z,11.08
2022-11-05T17:53:27.465Z,11.07
2022-11-05T17:55:54.077Z,11.05
2022-11-05T17:58:20.635Z,11.01
2022-11-05T18:00:57.571Z,10.95
2022-11-05T18:03:24.079Z,10.89
2022-11-05T18:05:53.286Z,10.89
2022-11-05T18:08:19.801Z,10.90
2022-11-05T18:10:46.305Z,10.91
2022-11-05T18:13:13.070Z,10.95
2022-11-05T18:15:41.824Z,10.96
2022-11-05T18:18:10.344Z,11.05
2022-11-05T18:20:36.829Z,11.06
2022-11-05T18:23:03.294Z,11.10
2022-11-05T18:25:29.958Z,11.13
2022-11-05T18:27:56.438Z,11.15
2022-11-05T18:30:22.935Z,11.17
2022-11-05T18:32:49.417Z,11.14
2022-11-05T18:35:15.868Z,11.13
2022-11-05T18:37:42.359Z,11.06
2022-11-05T18:40:08.790Z,11.10
2022-11-05T18:42:35.281Z,11.18
2022-11-05T18:45:01.816Z,11.23
2022-11-05T18:47:28.268Z,11.26
2022-11-05T18:49:54.829Z,11.20
2022-11-05T18:52:21.324Z,11.21
2022-11-05T18:54:48.374Z,11.28
2022-11-05T18:57:15.031Z,11.32
2022-11-05T18:59:41.482Z,11.31
2022-11-05T19:02:08.695Z,11.34
2022-11-05T19:04:35.367Z,11.36
2022-11-05T19:07:05.213Z,11.31
2022-11-05T19:09:32.435Z,11.36
2022-11-05T19:11:58.997Z,11.35
2022-11-05T19:14:25.609Z,11.41
2022-11-05T19:16:52.112Z,11.40
2022-11-05T19:19:20.758Z,11.30
2022-11-05T19:21:53.401Z,11.29
2022-11-05T19:24:20.176Z,11.23
2022-11-05T19:26:46.892Z,11.14
2022-11-05T19:29:13.433Z,11.06
2022-11-05T19:31:39.943Z,10.99
2022-11-05T19:34:08.202Z,10.84
2022-11-05T19:36:34.809Z,10.85
2022-11-05T19:39:01.303Z,10.82
2022-11-05T19:41:34.035Z,10.82
2022-11-05T19:44:02.590Z,10.86
2022-11-05T19:46:29.188Z,10.90
2022-11-05T19:48:55.740Z,10.85
2022-11-05T19:51:22.241Z,10.82
2022-11-05T19:53:48.805Z,10.83
2022-11-05T19:56:16.922Z,10.79
2022-11-05T19:58:43.409Z,10.81
2022-11-05T20:01:10.155Z,10.78
2022-11-05T20:03:36.827Z,10.71
2022-11-05T20:06:03.390Z,10.66
2022-11-05T20:08:30.093Z,10.69
2022-11-05T20:10:56.674Z,10.72
2022-11-05T20:13:23.193Z,10.75
2022-11-05T20:15:49.721Z,10.77
2022-11-05T20:18:16.270Z,10.78
2022-11-05T20:20:42.775Z,10.74
2022-11-05T20:23:09.977Z,10.69
2022-11-05T20:25:36.712Z,10.67
2022-11-05T20:28:03.281Z,10.61
2022-11-05T20:30:29.976Z,10.55
2022-11-05T20:32:56.549Z,10.50
2022-11-05T20:35:24.380Z,10.48
2022-11-05T20:37:53.982Z,10.43
2022-11-05T20:40:20.868Z,10.45
2022-11-05T20:42:49.425Z,10.46
2022-11-05T20:45:15.984Z,10.43
2022-11-05T20:47:42.967Z,10.38
2022-11-05T20:50:09.543Z,10.40
2022-11-05T20:52:40.125Z,10.46
2022-11-05T20:55:06.638Z,10.46
2022-11-05T20:57:33.149Z,10.44
2022-11-05T20:59:59.617Z,10.50
2022-11-05T21:02:26.275Z,10.54
2022-11-05T21:04:52.801Z,10.44
2022-11-05T21:07:19.413Z,10.54
2022-11-05T21:09:55.084Z,10.60
2022-11-05T21:12:21.779Z,10.58
2022-11-05T21:14:51.409Z,10.63
2022-11-05T21:17:18.102Z,10.62
2022-11-05T21:19:45.847Z,10.57
2022-11-05T21:22:14.453Z,10.58
2022-11-05T21:24:41.040Z,10.60
2022-11-05T21:27:07.579Z,10.49
2022-11-05T21:29:34.134Z,10.44
2022-11-05T21:32:00.524Z,10.41
2022-11-05T21:34:27.049Z,10.41
2022-11-05T21:36:53.522Z,10.46
2022-11-05T21:39:20.063Z,10.53
2022-11-05T21:41:46.551Z,10.46
2022-11-05T21:44:16.124Z,10.41
2022-11-05T21:46:44.829Z,10.40
2022-11-05T21:49:12.648Z,10.41
2022-11-05T21:51:41.126Z,10.46
2022-11-05T21:54:07.678Z,10.44
2022-11-05T21:56:34.121Z,10.47
2022-11-05T21:59:00.539Z,10.49
2022-11-05T22:01:30.673Z,10.48
2022-11-05T22:04:02.648Z,10.54
2022-11-05T22:06:30.989Z,10.53
2022-11-05T22:08:57.501Z,10.52
2022-11-05T22:11:27.624Z,10.49
2022-11-05T22:13:54.133Z,10.41
2022-11-05T22:16:21.178Z,10.29
2022-11-05T22:18:47.720Z,10.32
2022-11-05T22:21:19.323Z,10.40
2022-11-05T22:23:46.838Z,10.50
2022-11-05T22:26:13.326Z,10.40
2022-11-05T22:28:42.020Z,10.46
2022-11-05T22:31:08.546Z,10.46
2022-11-05T22:33:34.987Z,10.44
2022-11-05T22:36:01.482Z,10.50
2022-11-05T22:38:28.135Z,10.50
2022-11-05T22:40:54.746Z,10.52
2022-11-05T22:43:24.022Z,10.49
2022-11-05T22:45:50.532Z,10.52
2022-11-05T22:48:17.093Z,10.51
2022-11-05T22:50:43.580Z,10.47
2022-11-05T22:53:12.099Z,10.44
2022-11-05T22:55:38.595Z,10.40
2022-11-05T22:58:05.188Z,10.39
2022-11-05T23:00:31.672Z,10.39
2022-11-05T23:02:58.244Z,10.37
2022-11-05T23:05:24.908Z,10.33
2022-11-05T23:07:51.448Z,10.31
2022-11-05T23:10:19.560Z,10.34
2022-11-05T23:12:50.495Z,10.36
2022-11-05T23:15:17.155Z,10.38
2022-11-05T23:17:43.548Z,10.38
2022-11-05T23:20:10.037Z,10.33
2022-11-05T23:22:36.592Z,10.33
2022-11-05T23:25:03.099Z,10.25
2022-11-05T23:27:29.551Z,10.19
2022-11-05T23:29:56.054Z,10.17
2022-11-05T23:32:22.580Z,10.11
2022-11-05T23:34:49.078Z,10.15
2022-11-05T23:37:15.577Z,10.19
2022-11-05T23:39:43.013Z,10.21
2022-11-05T23:42:09.713Z,10.24
2022-11-05T23:44:36.158Z,10.14
2022-11-05T23:47:02.670Z,10.23
2022-11-05T23:49:29.170Z,10.19
2022-11-05T23:51:55.626Z,9.99
2022-11-05T23:54:22.155Z,9.97
2022-11-05T23:56:48.623Z,9.86
2022-11-05T23:59:16.151Z,9.58
